createdAt,value
2018-11-04T00:00:20.123Z,14.57
2018-11-04T00:00:56.828Z,13.80
2018-11-04T00:01:31.255Z,17.93
2018-11-04T00:02:06.004Z,16.97
2018-11-04T00:02:40.432Z,17.57
2018-11-04T00:03:14.919Z,16.13
2018-11-04T00:03:49.467Z,14.60
2018-11-04T00:04:24.445Z,14.83
2018-11-04T00:04:59.152Z,15.10
2018-11-04T00:05:33.492Z,14.40
2018-11-04T00:06:08.099Z,19.53
2018-11-04T00:06:42.488Z,17.17
2018-11-04T00:07:16.950Z,15.10
2018-11-04T00:07:52.129Z,16.40
2018-11-04T00:08:26.676Z,14.00
2018-11-04T00:09:01.048Z,17.53
2018-11-04T00:09:35.398Z,13.27
2018-11-04T00:10:11.240Z,15.33
2018-11-04T00:10:45.612Z,16.33
2018-11-04T00:11:19.956Z,15.20
2018-11-04T00:11:55.113Z,15.63
2018-11-04T00:12:29.542Z,15.83
2018-11-04T00:13:04.335Z,15.57
2018-11-04T00:13:38.971Z,19.60
2018-11-04T00:14:13.471Z,15.90
2018-11-04T00:14:47.861Z,15.73
2018-11-04T00:15:22.176Z,18.13
2018-11-04T00:15:56.703Z,16.27
2018-11-04T00:16:31.316Z,17.87
2018-11-04T00:17:06.477Z,16.63
2018-11-04T00:17:41.288Z,18.50
2018-11-04T00:18:15.996Z,17.27
2018-11-04T00:18:50.374Z,17.80
2018-11-04T00:19:24.925Z,16.67
2018-11-04T00:19:59.318Z,17.53
2018-11-04T00:20:33.668Z,15.73
2018-11-04T00:21:08.261Z,18.10
2018-11-04T00:21:42.672Z,15.80
2018-11-04T00:22:17.103Z,14.90
2018-11-04T00:22:51.936Z,17.43
2018-11-04T00:23:26.356Z,15.87
2018-11-04T00:24:00.699Z,17.80
2018-11-04T00:24:35.224Z,15.70
2018-11-04T00:25:12.096Z,17.87
2018-11-04T00:25:46.585Z,16.30
2018-11-04T00:26:21.284Z,19.37
2018-11-04T00:26:55.790Z,16.57
2018-11-04T00:27:30.264Z,16.50
2018-11-04T00:28:04.634Z,18.97
2018-11-04T00:28:39.075Z,17.80
2018-11-04T00:29:13.436Z,18.57
2018-11-04T00:29:47.842Z,17.60
2018-11-04T00:30:22.335Z,17.93
2018-11-04T00:30:56.839Z,17.47
2018-11-04T00:31:31.251Z,17.80
2018-11-04T00:32:05.781Z,22.17
2018-11-04T00:32:40.637Z,20.13
2018-11-04T00:33:15.020Z,19.03
2018-11-04T00:33:49.430Z,16.80
2018-11-04T00:34:23.798Z,20.27
2018-11-04T00:34:58.148Z,19.07
2018-11-04T00:35:32.489Z,17.03
2018-11-04T00:36:07.084Z,18.33
2018-11-04T00:36:41.605Z,17.90
2018-11-04T00:37:16.020Z,17.27
2018-11-04T00:37:50.629Z,18.63
2018-11-04T00:38:24.945Z,18.70
2018-11-04T00:38:59.315Z,17.63
2018-11-04T00:39:33.687Z,19.57
2018-11-04T00:40:09.368Z,18.17
2018-11-04T00:40:43.801Z,18.00
2018-11-04T00:41:18.136Z,19.13
2018-11-04T00:41:52.957Z,19.10
2018-11-04T00:42:27.378Z,20.77
2018-11-04T00:43:01.914Z,17.53
2018-11-04T00:43:36.255Z,19.27
2018-11-04T00:44:10.859Z,17.00
2018-11-04T00:44:45.263Z,18.70
2018-11-04T00:45:19.671Z,18.80
2018-11-04T00:45:54.176Z,17.43
2018-11-04T00:46:28.533Z,18.60
2018-11-04T00:47:04.168Z,18.00
2018-11-04T00:47:39.795Z,17.30
2018-11-04T00:48:14.192Z,18.27
2018-11-04T00:48:48.711Z,21.00
2018-11-04T00:49:23.199Z,18.07
2018-11-04T00:49:57.555Z,20.23
2018-11-04T00:50:31.888Z,18.87
2018-11-04T00:51:06.549Z,17.33
2018-11-04T00:51:40.964Z,18.50
2018-11-04T00:52:15.412Z,21.33
2018-11-04T00:52:49.766Z,21.30
2018-11-04T00:53:24.070Z,21.87
2018-11-04T00:53:58.424Z,19.27
2018-11-04T00:54:32.992Z,19.90
2018-11-04T00:55:07.933Z,17.80
2018-11-04T00:55:48.812Z,19.43
2018-11-04T00:56:23.141Z,22.40
2018-11-04T00:56:57.510Z,20.47
2018-11-04T00:57:31.882Z,23.70
2018-11-04T00:58:06.461Z,19.70
2018-11-04T00:58:40.868Z,25.23
2018-11-04T00:59:15.252Z,20.73
2018-11-04T00:59:49.651Z,20.20
2018-11-04T01:00:24.141Z,20.80
2018-11-04T01:00:58.534Z,20.23
2018-11-04T01:01:32.912Z,23.10
2018-11-04T01:02:07.468Z,20.03
2018-11-04T01:02:42.529Z,21.10
2018-11-04T01:03:17.285Z,20.83
2018-11-04T01:03:51.661Z,20.43
2018-11-04T01:04:26.032Z,21.37
2018-11-04T01:05:00.470Z,21.17
2018-11-04T01:05:34.844Z,20.87
2018-11-04T01:06:09.502Z,22.83
2018-11-04T01:06:43.855Z,22.07
2018-11-04T01:07:18.559Z,21.73
2018-11-04T01:07:52.930Z,22.83
2018-11-04T01:08:27.319Z,20.60
2018-11-04T01:09:01.779Z,20.97
2018-11-04T01:09:36.375Z,22.87
2018-11-04T01:10:12.489Z,21.97
2018-11-04T01:10:46.896Z,20.73
2018-11-04T01:11:21.334Z,23.97
2018-11-04T01:11:55.693Z,21.07
2018-11-04T01:12:30.246Z,22.13
2018-11-04T01:13:04.634Z,22.77
2018-11-04T01:13:39.507Z,21.93
2018-11-04T01:14:13.893Z,21.60
2018-11-04T01:14:48.252Z,21.97
2018-11-04T01:15:22.579Z,22.90
2018-11-04T01:15:56.931Z,23.13
2018-11-04T01:16:31.412Z,21.53
2018-11-04T01:17:06.683Z,23.73
2018-11-04T01:17:42.215Z,24.37
2018-11-04T01:18:16.616Z,23.10
2018-11-04T01:18:50.947Z,21.43
2018-11-04T01:19:25.297Z,22.40
2018-11-04T01:19:59.680Z,22.20
2018-11-04T01:20:34.025Z,22.97
2018-11-04T01:21:08.993Z,21.43
2018-11-04T01:21:43.901Z,21.97
2018-11-04T01:22:18.232Z,22.87
2018-11-04T01:22:52.585Z,22.47
2018-11-04T01:23:27.128Z,22.87
2018-11-04T01:24:04.796Z,22.37
2018-11-04T01:24:39.473Z,22.13
2018-11-04T01:25:14.073Z,22.63
2018-11-04T01:25:48.472Z,21.43
2018-11-04T01:26:22.800Z,24.40
2018-11-04T01:26:57.520Z,22.57
2018-11-04T01:27:32.228Z,23.17
2018-11-04T01:28:07.099Z,23.17
2018-11-04T01:28:41.501Z,23.67
2018-11-04T01:29:15.927Z,24.17
2018-11-04T01:29:50.429Z,24.30
2018-11-04T01:30:24.851Z,21.83
2018-11-04T01:30:59.365Z,22.23
2018-11-04T01:31:39.916Z,23.77
2018-11-04T01:32:14.863Z,24.10
2018-11-04T01:32:49.191Z,24.17
2018-11-04T01:33:23.584Z,22.67
2018-11-04T01:33:57.981Z,21.40
2018-11-04T01:34:32.316Z,24.60
2018-11-04T01:35:07.116Z,22.57
2018-11-04T01:35:41.576Z,24.17
2018-11-04T01:36:16.024Z,23.43
2018-11-04T01:36:50.737Z,22.63
2018-11-04T01:37:25.043Z,24.50
2018-11-04T01:37:59.575Z,21.63
2018-11-04T01:38:33.897Z,23.77
2018-11-04T01:39:09.352Z,25.07
2018-11-04T01:39:43.704Z,22.93
2018-11-04T01:40:18.058Z,23.30
2018-11-04T01:40:52.445Z,22.67
2018-11-04T01:41:27.012Z,22.87
2018-11-04T01:42:01.426Z,24.33
2018-11-04T01:42:35.922Z,23.30
2018-11-04T01:43:10.424Z,23.80
2018-11-04T01:43:45.025Z,25.27
2018-11-04T01:44:19.348Z,23.43
2018-11-04T01:44:53.712Z,26.07
2018-11-04T01:45:28.024Z,23.67
2018-11-04T01:46:02.372Z,22.90
2018-11-04T01:46:36.689Z,22.53
2018-11-04T01:47:11.137Z,23.20
2018-11-04T01:47:45.600Z,24.63
2018-11-04T01:48:19.945Z,23.50
2018-11-04T01:48:54.268Z,24.57
2018-11-04T01:49:28.636Z,24.03
2018-11-04T01:50:03.043Z,22.77
2018-11-04T01:50:37.424Z,26.30
2018-11-04T01:51:12.060Z,22.30
2018-11-04T01:51:46.433Z,23.93
2018-11-04T01:52:20.768Z,22.57
2018-11-04T01:52:55.067Z,25.30
2018-11-04T01:53:29.468Z,26.03
2018-11-04T01:54:03.867Z,25.17
2018-11-04T01:54:38.400Z,23.13
2018-11-04T01:55:13.399Z,24.93
2018-11-04T01:55:47.813Z,24.27
2018-11-04T01:56:22.148Z,23.80
2018-11-04T01:56:56.452Z,22.13
2018-11-04T01:57:30.937Z,23.67
2018-11-04T01:58:06.169Z,23.03
2018-11-04T01:58:40.549Z,23.57
2018-11-04T01:59:14.922Z,22.73
2018-11-04T01:59:49.305Z,24.13
2018-11-04T02:00:23.680Z,26.20
2018-11-04T02:00:58.011Z,25.80
2018-11-04T02:01:32.326Z,23.53
2018-11-04T02:02:06.706Z,23.57
2018-11-04T02:02:41.605Z,23.83
2018-11-04T02:03:16.005Z,22.97
2018-11-04T02:03:50.684Z,22.97
2018-11-04T02:04:25.029Z,24.20
2018-11-04T02:04:59.368Z,23.80
2018-11-04T02:05:33.720Z,22.60
2018-11-04T02:06:08.070Z,22.57
2018-11-04T02:06:42.503Z,24.13
2018-11-04T02:07:16.976Z,24.90
2018-11-04T02:07:51.304Z,25.07
2018-11-04T02:08:25.616Z,25.13
2018-11-04T02:08:59.963Z,25.17
2018-11-04T02:09:34.310Z,24.67
2018-11-04T02:10:10.933Z,23.90
2018-11-04T02:10:45.365Z,24.03
2018-11-04T02:11:19.721Z,25.63
2018-11-04T02:11:54.059Z,24.30
2018-11-04T02:12:28.612Z,24.30
2018-11-04T02:13:02.976Z,23.97
2018-11-04T02:13:37.384Z,25.73
2018-11-04T02:14:11.798Z,23.47
2018-11-04T02:14:46.236Z,23.40
2018-11-04T02:15:20.597Z,23.70
2018-11-04T02:15:54.908Z,30.20
2018-11-04T02:16:29.259Z,23.70
2018-11-04T02:17:03.629Z,24.13
2018-11-04T02:17:38.223Z,26.47
2018-11-04T02:18:12.715Z,24.53
2018-11-04T02:18:47.083Z,24.40
2018-11-04T02:19:21.377Z,24.60
2018-11-04T02:19:55.752Z,23.93
2018-11-04T02:20:30.169Z,23.63
2018-11-04T02:21:04.500Z,26.73
2018-11-04T02:21:38.969Z,24.47
2018-11-04T02:22:13.378Z,24.13
2018-11-04T02:22:47.809Z,24.13
2018-11-04T02:23:22.116Z,25.13
2018-11-04T02:23:56.427Z,25.07
2018-11-04T02:24:31.238Z,26.17
2018-11-04T02:25:06.572Z,25.63
2018-11-04T02:25:40.978Z,24.13
2018-11-04T02:26:15.556Z,24.90
2018-11-04T02:26:50.026Z,24.67
2018-11-04T02:27:24.344Z,24.73
2018-11-04T02:27:58.687Z,24.60
2018-11-04T02:28:33.145Z,25.50
2018-11-04T02:29:07.491Z,31.23
2018-11-04T02:29:42.035Z,23.53
2018-11-04T02:30:17.386Z,26.00
2018-11-04T02:30:51.835Z,25.17
2018-11-04T02:31:26.380Z,26.70
2018-11-04T02:32:00.700Z,23.40
2018-11-04T02:32:35.042Z,24.80
2018-11-04T02:33:09.426Z,24.97
2018-11-04T02:33:43.920Z,24.20
2018-11-04T02:34:18.291Z,26.83
2018-11-04T02:34:52.884Z,25.33
2018-11-04T02:35:27.242Z,25.87
2018-11-04T02:36:01.592Z,25.97
2018-11-04T02:36:35.946Z,25.33
2018-11-04T02:37:10.420Z,27.93
2018-11-04T02:37:45.019Z,25.00
2018-11-04T02:38:19.396Z,24.90
2018-11-04T02:38:53.761Z,26.07
2018-11-04T02:39:28.077Z,25.20
2018-11-04T02:40:02.432Z,24.60
2018-11-04T02:40:37.448Z,25.07
2018-11-04T02:41:11.942Z,27.10
2018-11-04T02:41:46.430Z,27.47
2018-11-04T02:42:20.877Z,26.33
2018-11-04T02:42:55.244Z,26.17
2018-11-04T02:43:29.599Z,26.60
2018-11-04T02:44:03.982Z,26.60
2018-11-04T02:44:38.380Z,28.73
2018-11-04T02:45:13.020Z,26.60
2018-11-04T02:45:47.445Z,26.63
2018-11-04T02:46:21.785Z,27.20
2018-11-04T02:46:56.162Z,28.03
2018-11-04T02:47:30.685Z,27.30
2018-11-04T02:48:05.181Z,25.10
2018-11-04T02:48:39.600Z,26.30
2018-11-04T02:49:14.051Z,26.47
2018-11-04T02:49:48.387Z,27.03
2018-11-04T02:50:22.738Z,26.30
2018-11-04T02:50:57.125Z,27.20
2018-11-04T02:51:32.083Z,25.30
2018-11-04T02:52:06.585Z,26.90
2018-11-04T02:52:41.285Z,25.87
2018-11-04T02:53:15.744Z,27.03
2018-11-04T02:53:50.062Z,28.27
2018-11-04T02:54:24.370Z,27.33
2018-11-04T02:54:58.720Z,26.67
2018-11-04T02:55:33.234Z,26.40
2018-11-04T02:56:07.994Z,27.53
2018-11-04T02:56:42.484Z,27.57
2018-11-04T02:57:16.945Z,26.87
2018-11-04T02:57:51.413Z,27.90
2018-11-04T02:58:25.779Z,27.80
2018-11-04T02:59:00.178Z,27.73
2018-11-04T02:59:34.536Z,27.13
2018-11-04T03:00:11.276Z,29.40
2018-11-04T03:00:45.669Z,27.27
2018-11-04T03:01:19.989Z,30.20
2018-11-04T03:01:54.381Z,28.73
2018-11-04T03:02:28.873Z,27.97
2018-11-04T03:03:03.285Z,27.87
2018-11-04T03:03:37.721Z,27.17
2018-11-04T03:04:12.236Z,27.60
2018-11-04T03:04:46.660Z,29.73
2018-11-04T03:05:21.004Z,29.30
2018-11-04T03:05:55.364Z,29.17
2018-11-04T03:06:29.706Z,27.83
2018-11-04T03:07:04.158Z,28.53
2018-11-04T03:07:38.754Z,26.93
2018-11-04T03:08:13.109Z,32.13
2018-11-04T03:08:47.576Z,28.83
2018-11-04T03:09:22.053Z,29.87
2018-11-04T03:09:56.391Z,29.70
2018-11-04T03:10:30.761Z,30.27
2018-11-04T03:11:05.507Z,28.97
2018-11-04T03:11:40.118Z,31.17
2018-11-04T03:12:14.478Z,30.70
2018-11-04T03:12:49.000Z,31.87
2018-11-04T03:13:23.391Z,32.27
2018-11-04T03:13:57.789Z,29.33
2018-11-04T03:14:32.672Z,28.33
2018-11-04T03:15:07.656Z,29.80
2018-11-04T03:15:42.191Z,28.17
2018-11-04T03:16:16.568Z,29.20
2018-11-04T03:16:51.002Z,28.47
2018-11-04T03:17:25.705Z,29.30
2018-11-04T03:18:00.099Z,30.83
2018-11-04T03:18:34.464Z,30.07
2018-11-04T03:19:09.191Z,29.70
2018-11-04T03:19:43.668Z,29.87
2018-11-04T03:20:18.065Z,35.30
2018-11-04T03:20:52.549Z,31.97
2018-11-04T03:21:27.048Z,28.83
2018-11-04T03:22:01.469Z,29.43
2018-11-04T03:22:35.897Z,32.23
2018-11-04T03:23:10.559Z,30.37
2018-11-04T03:23:45.032Z,30.77
2018-11-04T03:24:19.404Z,30.87
2018-11-04T03:24:53.807Z,32.50
2018-11-04T03:25:28.148Z,31.17
2018-11-04T03:26:03.130Z,28.10
2018-11-04T03:26:37.599Z,32.10
2018-11-04T03:27:12.042Z,31.70
2018-11-04T03:27:46.608Z,30.63
2018-11-04T03:28:21.381Z,30.50
2018-11-04T03:28:55.940Z,31.97
2018-11-04T03:29:30.320Z,30.50
2018-11-04T03:30:05.274Z,30.47
2018-11-04T03:30:40.107Z,30.67
2018-11-04T03:31:14.501Z,30.10
2018-11-04T03:31:49.019Z,31.23
2018-11-04T03:32:23.351Z,30.87
2018-11-04T03:32:57.699Z,29.83
2018-11-04T03:33:32.034Z,30.73
2018-11-04T03:34:06.396Z,29.33
2018-11-04T03:34:41.001Z,29.50
2018-11-04T03:35:15.401Z,29.70
2018-11-04T03:35:49.784Z,30.90
2018-11-04T03:36:24.200Z,35.10
2018-11-04T03:36:58.540Z,30.97
2018-11-04T03:37:32.987Z,29.53
2018-11-04T03:38:07.973Z,31.03
2018-11-04T03:38:42.435Z,29.83
2018-11-04T03:39:17.400Z,32.45
2018-11-04T03:39:51.775Z,31.57
2018-11-04T03:40:26.117Z,31.73
2018-11-04T03:41:00.483Z,31.63
2018-11-04T03:41:34.814Z,30.60
2018-11-04T03:42:09.619Z,30.90
2018-11-04T03:42:44.729Z,31.25
2018-11-04T03:43:25.481Z,30.10
2018-11-04T03:43:59.840Z,29.90
2018-11-04T03:44:34.224Z,30.23
2018-11-04T03:45:09.369Z,31.60
2018-11-04T03:45:43.895Z,31.67
2018-11-04T03:46:18.278Z,32.27
2018-11-04T03:46:52.668Z,31.20
2018-11-04T03:47:27.371Z,32.73
2018-11-04T03:48:02.147Z,31.33
2018-11-04T03:48:36.652Z,31.07
2018-11-04T03:49:11.036Z,31.73
2018-11-04T03:49:45.459Z,30.47
2018-11-04T03:50:19.819Z,31.53
2018-11-04T03:50:54.217Z,32.00
2018-11-04T03:51:28.794Z,31.43
2018-11-04T03:52:03.415Z,31.30
2018-11-04T03:52:37.949Z,30.73
2018-11-04T03:53:12.626Z,30.57
2018-11-04T03:53:47.365Z,30.13
2018-11-04T03:54:21.715Z,31.30
2018-11-04T03:54:56.056Z,33.33
2018-11-04T03:55:30.405Z,30.67
2018-11-04T03:56:05.453Z,31.67
2018-11-04T03:56:40.050Z,31.43
2018-11-04T03:57:14.521Z,32.27
2018-11-04T03:57:49.069Z,32.17
2018-11-04T03:58:23.419Z,32.20
2018-11-04T03:58:57.929Z,32.00
2018-11-04T03:59:32.283Z,33.10
2018-11-04T04:00:09.915Z,32.37
2018-11-04T04:00:44.464Z,32.73
2018-11-04T04:01:18.853Z,30.87
2018-11-04T04:01:53.309Z,31.40
2018-11-04T04:02:27.659Z,34.17
2018-11-04T04:03:02.052Z,34.83
2018-11-04T04:03:36.414Z,32.00
2018-11-04T04:04:10.891Z,31.17
2018-11-04T04:04:45.327Z,31.97
2018-11-04T04:05:19.694Z,32.77
2018-11-04T04:05:54.126Z,34.60
2018-11-04T04:06:28.466Z,31.53
2018-11-04T04:07:03.111Z,37.67
2018-11-04T04:07:37.568Z,32.13
2018-11-04T04:08:11.992Z,33.30
2018-11-04T04:08:46.417Z,33.03
2018-11-04T04:09:20.764Z,31.10
2018-11-04T04:09:55.140Z,32.13
2018-11-04T04:10:29.497Z,32.40
2018-11-04T04:11:03.904Z,29.90
2018-11-04T04:11:38.355Z,32.27
2018-11-04T04:12:12.824Z,33.00
2018-11-04T04:12:47.544Z,30.93
2018-11-04T04:13:22.044Z,32.47
2018-11-04T04:13:56.420Z,33.67
2018-11-04T04:14:30.757Z,30.90
2018-11-04T04:15:06.288Z,32.70
2018-11-04T04:15:40.673Z,31.00
2018-11-04T04:16:15.163Z,32.33
2018-11-04T04:16:49.494Z,31.63
2018-11-04T04:17:23.852Z,33.37
2018-11-04T04:17:58.249Z,32.13
2018-11-04T04:18:32.756Z,33.20
2018-11-04T04:19:07.197Z,32.37
2018-11-04T04:19:41.713Z,33.27
2018-11-04T04:20:16.119Z,32.57
2018-11-04T04:20:54.653Z,35.07
2018-11-04T04:21:29.053Z,30.63
2018-11-04T04:22:03.849Z,31.50
2018-11-04T04:22:38.253Z,32.17
2018-11-04T04:23:12.670Z,31.93
2018-11-04T04:23:47.072Z,33.80
2018-11-04T04:24:21.431Z,34.80
2018-11-04T04:24:55.773Z,39.27
2018-11-04T04:25:30.124Z,33.67
2018-11-04T04:26:04.529Z,33.33
2018-11-04T04:26:38.908Z,32.77
2018-11-04T04:27:13.780Z,33.17
2018-11-04T04:27:48.200Z,32.30
2018-11-04T04:28:22.745Z,33.87
2018-11-04T04:28:57.092Z,33.13
2018-11-04T04:29:31.438Z,32.70
2018-11-04T04:30:08.287Z,32.37
2018-11-04T04:30:42.648Z,32.47
2018-11-04T04:31:17.085Z,32.80
2018-11-04T04:31:51.464Z,33.10
2018-11-04T04:32:25.836Z,32.50
2018-11-04T04:33:00.139Z,35.87
2018-11-04T04:33:34.500Z,36.87
2018-11-04T04:34:08.908Z,32.50
2018-11-04T04:34:43.272Z,33.20
2018-11-04T04:35:17.900Z,32.43
2018-11-04T04:35:52.277Z,32.67
2018-11-04T04:36:26.630Z,34.03
2018-11-04T04:37:00.984Z,35.77
2018-11-04T04:37:35.338Z,36.47
2018-11-04T04:38:10.124Z,31.87
2018-11-04T04:38:44.676Z,33.87
2018-11-04T04:39:19.144Z,31.63
2018-11-04T04:39:53.530Z,32.67
2018-11-04T04:40:27.875Z,33.53
2018-11-04T04:41:02.248Z,37.80
2018-11-04T04:41:36.694Z,34.57
2018-11-04T04:42:11.091Z,32.83
2018-11-04T04:42:45.467Z,32.87
2018-11-04T04:43:19.803Z,33.10
2018-11-04T04:43:54.145Z,36.50
2018-11-04T04:44:28.478Z,34.93
2018-11-04T04:45:02.817Z,33.87
2018-11-04T04:45:37.215Z,35.50
2018-11-04T04:46:11.704Z,34.50
2018-11-04T04:46:46.067Z,34.30
2018-11-04T04:47:20.423Z,33.73
2018-11-04T04:47:54.917Z,33.03
2018-11-04T04:48:29.266Z,36.93
2018-11-04T04:49:03.619Z,35.23
2018-11-04T04:49:38.048Z,34.53
2018-11-04T04:50:12.619Z,34.30
2018-11-04T04:50:47.224Z,35.60
2018-11-04T04:51:21.388Z,33.60
2018-11-04T04:51:55.774Z,33.83
2018-11-04T04:52:30.128Z,34.40
2018-11-04T04:53:05.570Z,32.07
2018-11-04T04:53:40.084Z,33.10
2018-11-04T04:54:14.524Z,34.20
2018-11-04T04:54:48.875Z,33.33
2018-11-04T04:55:23.240Z,35.33
2018-11-04T04:55:58.105Z,35.10
2018-11-04T04:56:32.480Z,33.67
2018-11-04T04:57:06.872Z,33.60
2018-11-04T04:57:41.375Z,33.93
2018-11-04T04:58:15.771Z,34.17
2018-11-04T04:58:50.146Z,33.70
2018-11-04T04:59:24.636Z,36.13
2018-11-04T04:59:59.076Z,33.57
2018-11-04T05:00:33.606Z,32.47
2018-11-04T05:01:08.024Z,35.67
2018-11-04T05:01:42.530Z,34.50
2018-11-04T05:02:16.884Z,34.30
2018-11-04T05:02:51.245Z,33.57
2018-11-04T05:03:25.571Z,36.17
2018-11-04T05:03:59.931Z,34.67
2018-11-04T05:04:34.281Z,34.70
2018-11-04T05:05:08.662Z,34.77
2018-11-04T05:05:43.052Z,34.07
2018-11-04T05:06:17.399Z,34.07
2018-11-04T05:06:51.775Z,34.03
2018-11-04T05:07:26.112Z,33.30
2018-11-04T05:08:00.449Z,33.93
2018-11-04T05:08:34.771Z,34.77
2018-11-04T05:09:09.369Z,37.37
2018-11-04T05:09:43.614Z,33.37
2018-11-04T05:10:17.975Z,34.37
2018-11-04T05:10:52.345Z,32.73
2018-11-04T05:11:26.695Z,34.90
2018-11-04T05:12:01.084Z,35.40
2018-11-04T05:12:35.420Z,34.73
2018-11-04T05:13:10.177Z,32.97
2018-11-04T05:13:44.624Z,35.20
2018-11-04T05:14:19.034Z,35.27
2018-11-04T05:14:53.516Z,34.33
2018-11-04T05:15:27.842Z,34.23
2018-11-04T05:16:02.180Z,35.43
2018-11-04T05:16:36.795Z,35.00
2018-11-04T05:17:11.341Z,38.00
2018-11-04T05:17:45.775Z,34.80
2018-11-04T05:18:20.118Z,34.37
2018-11-04T05:18:54.440Z,35.23
2018-11-04T05:19:28.909Z,33.97
2018-11-04T05:20:03.299Z,34.27
2018-11-04T05:20:37.742Z,33.13
2018-11-04T05:21:12.160Z,33.67
2018-11-04T05:21:46.843Z,34.80
2018-11-04T05:22:21.163Z,36.27
2018-11-04T05:22:55.529Z,31.73
2018-11-04T05:23:29.863Z,34.00
2018-11-04T05:24:04.683Z,32.40
2018-11-04T05:24:39.089Z,37.03
2018-11-04T05:25:13.627Z,34.57
2018-11-04T05:25:47.973Z,33.73
2018-11-04T05:26:22.371Z,34.53
2018-11-04T05:26:56.713Z,32.93
2018-11-04T05:27:31.068Z,32.83
2018-11-04T05:28:05.863Z,33.07
2018-11-04T05:28:40.256Z,34.00
2018-11-04T05:29:14.624Z,34.83
2018-11-04T05:29:49.155Z,32.50
2018-11-04T05:30:23.536Z,35.37
2018-11-04T05:30:57.934Z,34.43
2018-11-04T05:31:32.244Z,33.87
2018-11-04T05:32:06.948Z,33.67
2018-11-04T05:32:41.297Z,36.03
2018-11-04T05:33:15.675Z,32.85
2018-11-04T05:33:50.016Z,34.40
2018-11-04T05:34:24.919Z,35.86
2018-11-04T05:34:59.231Z,36.07
2018-11-04T05:35:33.572Z,34.60
2018-11-04T05:36:07.971Z,36.40
2018-11-04T05:36:42.396Z,34.70
2018-11-04T05:37:16.858Z,37.48
2018-11-04T05:37:51.187Z,33.77
2018-11-04T05:38:25.636Z,33.60
2018-11-04T05:39:00.747Z,34.55
2018-11-04T05:39:35.679Z,34.98
2018-11-04T05:40:11.043Z,32.70
2018-11-04T05:40:45.552Z,37.67
2018-11-04T05:41:19.888Z,35.50
2018-11-04T05:41:54.816Z,33.42
2018-11-04T05:42:29.145Z,33.83
2018-11-04T05:43:03.576Z,33.37
2018-11-04T05:43:38.127Z,35.50
2018-11-04T05:44:12.844Z,35.70
2018-11-04T05:44:47.286Z,36.67
2018-11-04T05:45:21.646Z,33.90
2018-11-04T05:45:55.976Z,34.10
2018-11-04T05:46:30.282Z,35.30
2018-11-04T05:47:04.652Z,36.40
2018-11-04T05:47:39.224Z,33.70
2018-11-04T05:48:13.692Z,34.47
2018-11-04T05:48:48.592Z,35.58
2018-11-04T05:49:22.996Z,36.07
2018-11-04T05:49:57.880Z,35.63
2018-11-04T05:50:32.323Z,33.40
2018-11-04T05:51:06.727Z,35.47
2018-11-04T05:51:41.213Z,34.60
2018-11-04T05:52:15.749Z,34.60
2018-11-04T05:52:50.104Z,33.83
2018-11-04T05:53:24.425Z,37.53
2018-11-04T05:53:58.735Z,37.20
2018-11-04T05:54:33.254Z,37.60
2018-11-04T05:55:09.008Z,35.77
2018-11-04T05:55:43.401Z,36.13
2018-11-04T05:56:17.767Z,36.00
2018-11-04T05:56:52.128Z,35.07
2018-11-04T05:57:26.494Z,33.87
2018-11-04T05:58:00.826Z,35.10
2018-11-04T05:58:35.152Z,35.77
2018-11-04T05:59:09.605Z,36.40
2018-11-04T05:59:44.049Z,33.87
2018-11-04T06:00:18.428Z,35.63
2018-11-04T06:00:52.951Z,34.80
2018-11-04T06:01:27.376Z,36.67
2018-11-04T06:02:01.735Z,33.80
2018-11-04T06:02:36.094Z,34.40
2018-11-04T06:03:10.531Z,35.90
2018-11-04T06:03:44.996Z,37.90
2018-11-04T06:04:19.311Z,37.23
2018-11-04T06:04:53.665Z,36.43
2018-11-04T06:05:27.987Z,37.33
2018-11-04T06:06:02.366Z,34.60
2018-11-04T06:06:36.726Z,36.83
2018-11-04T06:07:11.208Z,35.17
2018-11-04T06:07:45.556Z,34.40
2018-11-04T06:08:19.900Z,35.43
2018-11-04T06:08:54.243Z,35.13
2018-11-04T06:09:28.572Z,34.67
2018-11-04T06:10:03.109Z,34.27
2018-11-04T06:10:37.469Z,36.10
2018-11-04T06:11:11.849Z,34.37
2018-11-04T06:11:46.792Z,34.03
2018-11-04T06:12:21.161Z,36.33
2018-11-04T06:12:55.500Z,34.93
2018-11-04T06:13:30.211Z,34.70
2018-11-04T06:14:04.587Z,34.93
2018-11-04T06:14:39.030Z,35.40
2018-11-04T06:15:13.412Z,36.70
2018-11-04T06:15:47.803Z,36.23
2018-11-04T06:16:22.328Z,37.10
2018-11-04T06:16:56.706Z,36.97
2018-11-04T06:17:31.090Z,35.43
2018-11-04T06:18:05.866Z,35.73
2018-11-04T06:18:40.678Z,36.83
2018-11-04T06:19:15.316Z,36.37
2018-11-04T06:19:50.008Z,34.43
2018-11-04T06:20:24.530Z,36.47
2018-11-04T06:20:59.193Z,34.67
2018-11-04T06:21:33.543Z,36.27
2018-11-04T06:22:07.932Z,38.27
2018-11-04T06:22:43.554Z,34.73
2018-11-04T06:23:17.958Z,37.20
2018-11-04T06:23:52.457Z,37.20
2018-11-04T06:24:27.385Z,34.98
2018-11-04T06:25:01.831Z,36.57
2018-11-04T06:25:36.202Z,35.83
2018-11-04T06:26:10.887Z,37.47
2018-11-04T06:26:45.282Z,37.60
2018-11-04T06:27:20.450Z,37.35
2018-11-04T06:27:55.391Z,34.73
2018-11-04T06:28:29.972Z,36.83
2018-11-04T06:29:04.788Z,36.10
2018-11-04T06:29:39.297Z,35.97
2018-11-04T06:30:14.180Z,36.53
2018-11-04T06:30:48.531Z,36.63
2018-11-04T06:31:22.922Z,35.07
2018-11-04T06:31:57.246Z,39.90
2018-11-04T06:32:31.603Z,36.50
2018-11-04T06:33:06.132Z,36.07
2018-11-04T06:33:41.812Z,34.55
2018-11-04T06:34:16.415Z,34.20
2018-11-04T06:34:50.842Z,35.87
2018-11-04T06:35:25.228Z,37.90
2018-11-04T06:35:59.604Z,36.63
2018-11-04T06:36:34.016Z,42.10
2018-11-04T06:37:08.670Z,34.87
2018-11-04T06:37:43.348Z,38.37
2018-11-04T06:38:17.737Z,39.23
2018-11-04T06:38:52.122Z,35.63
2018-11-04T06:39:26.473Z,35.03
2018-11-04T06:40:00.841Z,36.37
2018-11-04T06:40:35.169Z,37.47
2018-11-04T06:41:09.711Z,35.97
2018-11-04T06:41:44.335Z,37.67
2018-11-04T06:42:19.084Z,38.80
2018-11-04T06:42:53.408Z,36.73
2018-11-04T06:43:27.750Z,39.90
2018-11-04T06:44:02.077Z,37.17
2018-11-04T06:44:36.460Z,38.40
2018-11-04T06:45:11.276Z,38.20
2018-11-04T06:45:45.683Z,36.67
2018-11-04T06:46:20.251Z,35.30
2018-11-04T06:46:54.757Z,37.23
2018-11-04T06:47:29.314Z,35.87
2018-11-04T06:48:03.852Z,36.83
2018-11-04T06:48:38.268Z,35.80
2018-11-04T06:49:12.630Z,36.20
2018-11-04T06:49:47.075Z,35.57
2018-11-04T06:50:22.127Z,38.40
2018-11-04T06:50:56.448Z,35.67
2018-11-04T06:51:30.779Z,36.20
2018-11-04T06:52:05.827Z,35.30
2018-11-04T06:52:40.261Z,37.53
2018-11-04T06:53:14.703Z,36.37
2018-11-04T06:53:49.082Z,35.17
2018-11-04T06:54:24.013Z,35.40
2018-11-04T06:54:58.370Z,35.63
2018-11-04T06:55:32.711Z,37.53
2018-11-04T06:57:10.078Z,35.73
2018-11-04T06:57:44.596Z,37.50
2018-11-04T06:58:19.144Z,36.77
2018-11-04T06:58:53.448Z,35.53
2018-11-04T06:59:34.234Z,35.40
2018-11-04T07:00:10.375Z,37.03
2018-11-04T07:00:44.830Z,34.27
2018-11-04T07:01:19.262Z,34.13
2018-11-04T07:01:53.600Z,36.33
2018-11-04T07:02:28.014Z,35.83
2018-11-04T07:03:02.358Z,36.53
2018-11-04T07:03:36.828Z,35.47
2018-11-04T07:04:22.493Z,35.67
2018-11-04T07:04:56.863Z,35.20
2018-11-04T07:05:31.349Z,39.40
2018-11-04T07:06:05.743Z,34.27
2018-11-04T07:06:40.380Z,40.30
2018-11-04T07:07:14.937Z,36.07
2018-11-04T07:07:49.320Z,36.47
2018-11-04T07:08:23.673Z,36.53
2018-11-04T07:08:58.119Z,35.97
2018-11-04T07:09:32.632Z,34.80
2018-11-04T07:10:08.944Z,33.50
2018-11-04T07:10:43.310Z,36.40
2018-11-04T07:11:17.751Z,34.87
2018-11-04T07:11:52.120Z,35.07
2018-11-04T07:12:26.652Z,36.40
2018-11-04T07:13:01.043Z,36.43
2018-11-04T07:13:35.521Z,35.30
2018-11-04T07:14:09.964Z,36.10
2018-11-04T07:14:44.692Z,34.90
2018-11-04T07:15:25.380Z,34.83
2018-11-04T07:15:59.726Z,39.30
2018-11-04T07:16:34.064Z,35.67
2018-11-04T07:17:08.460Z,36.07
2018-11-04T07:17:42.909Z,37.33
2018-11-04T07:18:17.452Z,38.13
2018-11-04T07:18:51.799Z,37.70
2018-11-04T07:19:26.135Z,36.67
2018-11-04T07:20:00.511Z,37.73
2018-11-04T07:20:35.057Z,39.80
2018-11-04T07:21:09.460Z,35.60
2018-11-04T07:21:44.281Z,41.83
2018-11-04T07:22:18.642Z,37.47
2018-11-04T07:22:53.239Z,38.87
2018-11-04T07:23:27.620Z,37.23
2018-11-04T07:24:02.201Z,36.40
2018-11-04T07:24:36.545Z,36.13
2018-11-04T07:25:10.971Z,36.10
2018-11-04T07:25:45.444Z,38.13
2018-11-04T07:26:19.875Z,36.17